createdAt,value
2018-04-30T00:01:02.909Z,98962.45
2018-04-30T00:03:30.497Z,98968.78
2018-04-30T00:05:58.085Z,98963.78
2018-04-30T00:08:25.951Z,98965.59
2018-04-30T00:10:53.558Z,98965.34
2018-04-30T00:13:21.166Z,98960.87
2018-04-30T00:15:48.762Z,98956.25
2018-04-30T00:18:16.313Z,98960.28
2018-04-30T00:20:43.936Z,98956.57
2018-04-30T00:23:11.858Z,98962.55
2018-04-30T00:25:40.078Z,98951.07
2018-04-30T00:28:07.900Z,98952.81
2018-04-30T00:30:35.460Z,98951.89
2018-04-30T00:33:03.025Z,98951.81
2018-04-30T00:35:30.767Z,98925.72
2018-04-30T00:37:58.363Z,98947.67
2018-04-30T00:40:25.933Z,98946.60
2018-04-30T00:42:53.533Z,98946.77
2018-04-30T00:45:21.080Z,98950.46
2018-04-30T00:47:48.788Z,98953.48
2018-04-30T00:50:16.561Z,98957.00
2018-04-30T00:52:44.268Z,98958.96
2018-04-30T00:55:11.839Z,98955.11
2018-04-30T00:57:39.434Z,98956.42
2018-04-30T01:00:07.222Z,98948.48
2018-04-30T01:02:34.786Z,98951.48
2018-04-30T01:05:02.357Z,98952.00
2018-04-30T01:07:29.916Z,98940.38
2018-04-30T01:09:57.702Z,98943.82
2018-04-30T01:12:25.432Z,98943.82
2018-04-30T01:14:53.000Z,98946.02
2018-04-30T01:17:20.619Z,98942.09
2018-04-30T01:19:48.184Z,98941.59
2018-04-30T01:22:15.782Z,98944.73
2018-04-30T01:24:43.348Z,98942.55
2018-04-30T01:27:10.905Z,98932.34
2018-04-30T01:29:38.516Z,98919.08
2018-04-30T01:32:06.092Z,98938.60
2018-04-30T01:34:33.835Z,98941.92
2018-04-30T01:37:01.623Z,98939.12
2018-04-30T01:39:29.419Z,98951.77
2018-04-30T01:41:57.030Z,98940.03
2018-04-30T01:44:24.689Z,98941.83
2018-04-30T01:46:52.272Z,98944.19
2018-04-30T01:49:19.854Z,98940.26
2018-04-30T01:51:47.493Z,98936.28
2018-04-30T01:54:15.330Z,98937.23
2018-04-30T01:56:42.939Z,98943.30
2018-04-30T01:59:10.513Z,98939.22
2018-04-30T02:01:38.255Z,98935.20
2018-04-30T02:04:06.099Z,98935.25
2018-04-30T02:06:33.698Z,98934.36
2018-04-30T02:09:01.256Z,98940.09
2018-04-30T02:11:28.824Z,98939.94
2018-04-30T02:13:56.467Z,98937.49
2018-04-30T02:16:24.354Z,98936.17
2018-04-30T02:18:52.199Z,98937.23
2018-04-30T02:21:19.767Z,98934.04
2018-04-30T02:23:47.364Z,98925.47
2018-04-30T02:26:14.937Z,98926.14
2018-04-30T02:28:42.560Z,98930.64
2018-04-30T02:31:10.213Z,98921.08
2018-04-30T02:33:37.817Z,98929.49
2018-04-30T02:36:05.634Z,98928.09
2018-04-30T02:38:33.207Z,98934.11
2018-04-30T02:41:00.970Z,98929.80
2018-04-30T02:43:28.788Z,98926.84
2018-04-30T02:45:56.506Z,98927.73
2018-04-30T02:48:24.072Z,98929.56
2018-04-30T02:50:51.689Z,98927.20
2018-04-30T02:53:19.461Z,98936.30
2018-04-30T02:55:47.298Z,98929.82
2018-04-30T02:58:14.849Z,98940.05
2018-04-30T03:00:42.718Z,98935.27
2018-04-30T03:03:10.323Z,98941.80
2018-04-30T03:05:37.893Z,98935.95
2018-04-30T03:08:05.629Z,98934.48
2018-04-30T03:10:33.391Z,98939.33
2018-04-30T03:13:00.969Z,98934.25
2018-04-30T03:15:28.637Z,98933.83
2018-04-30T03:17:56.219Z,98926.45
2018-04-30T03:20:24.160Z,98929.28
2018-04-30T03:22:51.779Z,98935.44
2018-04-30T03:25:19.333Z,98939.70
2018-04-30T03:27:46.948Z,98930.98
2018-04-30T03:30:14.527Z,98936.26
2018-04-30T03:32:42.121Z,98939.16
2018-04-30T03:35:09.781Z,98938.27
2018-04-30T03:37:37.337Z,98934.20
2018-04-30T03:40:04.976Z,98940.44
2018-04-30T03:42:32.564Z,98935.20
2018-04-30T03:45:00.152Z,98933.59
2018-04-30T03:47:27.752Z,98940.38
2018-04-30T03:49:55.322Z,98941.75
2018-04-30T03:52:22.890Z,98943.66
2018-04-30T03:54:50.483Z,98945.01
2018-04-30T03:57:18.120Z,98947.98
2018-04-30T03:59:45.737Z,98948.47
2018-04-30T04:02:25.289Z,98944.30
2018-04-30T04:05:04.684Z,98945.91
2018-04-30T04:07:32.385Z,98954.05
2018-04-30T04:09:59.968Z,98945.53
2018-04-30T04:12:27.682Z,98955.52
2018-04-30T04:14:55.537Z,98956.20
2018-04-30T04:17:23.255Z,98957.81
2018-04-30T04:19:50.854Z,98963.30
2018-04-30T04:22:18.408Z,98962.20
2018-04-30T04:24:46.071Z,98960.70
2018-04-30T04:27:13.701Z,98962.31
2018-04-30T04:29:41.545Z,98952.19
2018-04-30T04:32:09.163Z,98965.70
2018-04-30T04:34:36.737Z,98966.12
2018-04-30T04:37:04.304Z,98967.11
2018-04-30T04:39:32.119Z,98966.00
2018-04-30T04:41:59.763Z,98964.77
2018-04-30T04:44:27.370Z,98965.40
2018-04-30T04:46:55.063Z,98965.88
2018-04-30T04:49:22.784Z,98964.20
2018-04-30T04:51:50.399Z,98965.67
2018-04-30T04:54:18.144Z,98964.85
2018-04-30T04:56:45.843Z,98968.78
2018-04-30T04:59:13.410Z,98974.52
2018-04-30T05:01:41.069Z,98973.47
2018-04-30T05:04:08.684Z,98977.14
2018-04-30T05:06:36.378Z,98981.81
2018-04-30T05:09:03.993Z,98971.97
2018-04-30T05:11:31.544Z,98989.35
2018-04-30T05:13:59.103Z,98981.26
2018-04-30T05:16:26.817Z,98980.58
2018-04-30T05:18:54.523Z,98978.67
2018-04-30T05:21:22.089Z,98974.56
2018-04-30T05:23:49.732Z,98973.36
2018-04-30T05:26:17.297Z,98974.77
2018-04-30T05:28:44.938Z,98967.41
2018-04-30T05:31:12.517Z,98976.14
2018-04-30T05:33:40.102Z,98973.78
2018-04-30T05:36:07.931Z,98974.42
2018-04-30T05:38:35.749Z,98978.69
2018-04-30T05:41:03.533Z,98974.00
2018-04-30T05:43:31.286Z,98978.17
2018-04-30T05:45:58.895Z,98985.95
2018-04-30T05:48:26.512Z,98975.47
2018-04-30T05:50:54.079Z,98973.50
2018-04-30T05:53:21.963Z,98971.06
2018-04-30T05:55:49.536Z,98972.72
2018-04-30T05:58:17.088Z,98969.44
2018-04-30T06:00:44.666Z,98972.59
2018-04-30T06:03:12.232Z,98970.84
2018-04-30T06:05:39.844Z,98974.77
2018-04-30T06:08:07.404Z,98980.98
2018-04-30T06:10:34.969Z,98972.13
2018-04-30T06:13:02.801Z,98977.13
2018-04-30T06:15:30.354Z,98978.02
2018-04-30T06:17:58.138Z,98979.52
2018-04-30T06:20:25.747Z,98977.09
2018-04-30T06:22:53.304Z,98973.20
2018-04-30T06:25:21.091Z,98976.98
2018-04-30T06:27:48.701Z,98967.14
2018-04-30T06:30:16.529Z,98966.96
2018-04-30T06:32:44.247Z,98970.19
2018-04-30T06:35:12.029Z,98964.42
2018-04-30T06:37:39.601Z,98967.46
2018-04-30T06:40:07.186Z,98966.33
2018-04-30T06:42:34.800Z,98969.51
2018-04-30T06:45:02.540Z,98979.87
2018-04-30T06:47:30.105Z,98969.62
2018-04-30T06:49:57.678Z,98962.80
2018-04-30T06:52:25.232Z,98966.12
2018-04-30T06:54:52.836Z,98958.72
2018-04-30T06:57:20.526Z,98965.71
2018-04-30T06:59:48.406Z,98959.63
2018-04-30T07:02:15.996Z,98967.45
2018-04-30T07:04:43.668Z,98972.39
2018-04-30T07:07:11.276Z,98970.91
2018-04-30T07:09:39.010Z,98973.23
2018-04-30T07:12:06.636Z,98963.06
2018-04-30T07:14:34.354Z,98968.63
2018-04-30T07:17:01.967Z,98970.22
2018-04-30T07:19:29.557Z,98971.81
2018-04-30T07:21:57.104Z,98973.58
2018-04-30T07:24:24.666Z,98963.98
2018-04-30T07:26:52.238Z,98964.00
2018-04-30T07:29:19.853Z,98966.13
2018-04-30T07:31:47.680Z,98966.68
2018-04-30T07:34:15.228Z,98964.78
2018-04-30T07:36:42.828Z,98969.62
2018-04-30T07:39:10.724Z,98964.11
2018-04-30T07:41:38.339Z,98970.59
2018-04-30T07:44:06.005Z,98968.55
2018-04-30T07:46:33.568Z,98969.45
2018-04-30T07:49:01.126Z,98971.91
2018-04-30T07:51:28.700Z,98974.98
2018-04-30T07:53:56.260Z,98973.16
2018-04-30T07:56:23.912Z,98973.11
2018-04-30T07:58:51.453Z,98969.39
2018-04-30T08:01:19.176Z,98966.09
2018-04-30T08:03:46.914Z,98966.58
2018-04-30T08:06:14.633Z,98958.96
2018-04-30T08:08:42.249Z,98961.38
2018-04-30T08:11:09.813Z,98964.52
2018-04-30T08:13:37.372Z,98964.13
2018-04-30T08:16:04.960Z,98965.63
2018-04-30T08:18:32.605Z,98961.51
2018-04-30T08:21:00.438Z,98961.14
2018-04-30T08:23:28.064Z,98951.98
2018-04-30T08:25:55.689Z,98959.22
2018-04-30T08:28:23.259Z,98957.13
2018-04-30T08:30:50.816Z,98954.55
2018-04-30T08:33:18.522Z,98956.11
2018-04-30T08:35:46.112Z,98946.17
2018-04-30T08:38:13.759Z,98948.30
2018-04-30T08:40:41.584Z,98942.27
2018-04-30T08:43:09.168Z,98948.13
2018-04-30T08:45:36.789Z,98943.55
2018-04-30T08:48:04.397Z,98947.85
2018-04-30T08:50:32.120Z,98945.83
2018-04-30T08:52:59.699Z,98944.77
2018-04-30T08:55:27.493Z,98949.01
2018-04-30T08:57:55.314Z,98942.20
2018-04-30T09:00:22.887Z,98945.17
2018-04-30T09:02:50.647Z,98938.32
2018-04-30T09:05:19.246Z,98945.42
2018-04-30T09:07:46.811Z,98948.08
2018-04-30T09:10:14.516Z,98943.38
2018-04-30T09:12:42.091Z,98946.20
2018-04-30T09:15:09.841Z,98933.48
2018-04-30T09:17:37.400Z,98932.65
2018-04-30T09:20:05.071Z,98934.05
2018-04-30T09:22:32.672Z,98939.30
2018-04-30T09:25:00.415Z,98940.27
2018-04-30T09:27:28.047Z,98939.44
2018-04-30T09:29:55.623Z,98933.89
2018-04-30T09:32:23.188Z,98934.30
2018-04-30T09:34:50.777Z,98929.80
2018-04-30T09:37:18.467Z,98930.55
2018-04-30T09:39:46.174Z,98924.95
2018-04-30T09:42:13.745Z,98925.00
2018-04-30T09:44:41.458Z,98913.48
2018-04-30T09:47:09.363Z,98915.74
2018-04-30T09:49:36.872Z,98905.77
2018-04-30T09:52:04.464Z,98906.95
2018-04-30T09:54:32.332Z,98899.14
2018-04-30T09:56:59.865Z,98903.66
2018-04-30T09:59:27.490Z,98899.44
2018-04-30T10:01:55.286Z,98892.78
2018-04-30T10:04:22.851Z,98893.80
2018-04-30T10:06:50.526Z,98898.63
2018-04-30T10:09:18.073Z,98891.53
2018-04-30T10:11:45.696Z,98883.09
2018-04-30T10:14:13.253Z,98883.87
2018-04-30T10:16:40.965Z,98882.30
2018-04-30T10:19:08.568Z,98881.97
2018-04-30T10:21:36.191Z,98880.25
2018-04-30T10:24:03.961Z,98880.54
2018-04-30T10:26:31.671Z,98881.77
2018-04-30T10:28:59.254Z,98878.94
2018-04-30T10:31:26.970Z,98871.73
2018-04-30T10:33:54.684Z,98876.84
2018-04-30T10:36:22.540Z,98872.95
2018-04-30T10:38:50.358Z,98873.25
2018-04-30T10:41:17.989Z,98873.55
2018-04-30T10:43:45.796Z,98864.70
2018-04-30T10:46:13.351Z,98872.11
2018-04-30T10:48:41.022Z,98861.54
2018-04-30T10:51:08.572Z,98859.33
2018-04-30T10:53:36.156Z,98859.55
2018-04-30T10:56:03.985Z,98858.31
2018-04-30T10:58:31.539Z,98856.67
2018-04-30T11:00:59.160Z,98858.59
2018-04-30T11:03:26.748Z,98852.25
2018-04-30T11:05:54.556Z,98850.05
2018-04-30T11:08:22.121Z,98853.68
2018-04-30T11:10:49.895Z,98850.14
2018-04-30T11:13:17.528Z,98849.38
2018-04-30T11:15:45.090Z,98841.97
2018-04-30T11:18:12.849Z,98844.92
2018-04-30T11:20:40.417Z,98841.06
2018-04-30T11:23:08.152Z,98848.09
2018-04-30T11:25:35.774Z,98847.03
2018-04-30T11:28:03.411Z,98837.40
2018-04-30T11:30:31.004Z,98838.73
2018-04-30T11:32:58.726Z,98845.56
2018-04-30T11:35:26.662Z,98839.69
2018-04-30T11:37:54.308Z,98831.62
2018-04-30T11:40:22.112Z,98823.84
2018-04-30T11:42:49.819Z,98830.14
2018-04-30T11:45:17.556Z,98824.01
2018-04-30T11:47:45.159Z,98820.62
2018-04-30T11:50:12.798Z,98822.09
2018-04-30T11:52:40.396Z,98817.94
2018-04-30T11:55:07.961Z,98813.77
2018-04-30T11:57:35.630Z,98813.34
2018-04-30T12:00:03.244Z,98810.58
2018-04-30T12:02:30.975Z,98813.36
2018-04-30T12:04:58.567Z,98800.45
2018-04-30T12:07:26.121Z,98803.53
2018-04-30T12:09:53.821Z,98798.60
2018-04-30T12:12:21.441Z,98802.73
2018-04-30T12:14:49.137Z,98797.91
2018-04-30T12:17:16.773Z,98797.64
2018-04-30T12:19:44.606Z,98800.52
2018-04-30T12:22:12.457Z,98796.86
2018-04-30T12:24:40.076Z,98796.48
2018-04-30T12:27:07.773Z,98803.83
2018-04-30T12:29:35.575Z,98793.15
2018-04-30T12:32:03.393Z,98792.44
2018-04-30T12:34:30.969Z,98790.13
2018-04-30T12:36:58.730Z,98796.11
2018-04-30T12:39:26.352Z,98785.62
2018-04-30T12:41:53.912Z,98786.53
2018-04-30T12:44:21.584Z,98782.81
2018-04-30T12:46:49.405Z,98776.52
2018-04-30T12:49:16.965Z,98775.20
2018-04-30T12:51:44.597Z,98778.77
2018-04-30T12:54:12.356Z,98775.75
2018-04-30T12:56:39.932Z,98768.99
2018-04-30T12:59:07.693Z,98766.50
2018-04-30T13:01:35.512Z,98757.46
2018-04-30T13:04:03.161Z,98764.25
2018-04-30T13:06:30.827Z,98764.47
2018-04-30T13:08:58.627Z,98759.44
2018-04-30T13:11:26.284Z,98761.41
2018-04-30T13:13:53.850Z,98763.67
2018-04-30T13:16:21.602Z,98763.47
2018-04-30T13:18:49.279Z,98755.98
2018-04-30T13:21:17.023Z,98753.80
2018-04-30T13:23:44.603Z,98760.95
2018-04-30T13:26:12.186Z,98747.50
2018-04-30T13:28:40.042Z,98749.02
2018-04-30T13:31:07.724Z,98752.52
2018-04-30T13:33:35.285Z,98749.32
2018-04-30T13:36:02.860Z,98753.63
2018-04-30T13:38:30.408Z,98741.09
2018-04-30T13:40:58.071Z,98738.09
2018-04-30T13:43:25.819Z,98736.77
2018-04-30T13:45:53.412Z,98735.50
2018-04-30T13:48:20.974Z,98735.20
2018-04-30T13:50:48.541Z,98733.63
2018-04-30T13:53:16.129Z,98707.84
2018-04-30T13:55:43.685Z,98714.38
2018-04-30T13:58:11.240Z,98727.97
2018-04-30T14:00:39.044Z,98727.59
2018-04-30T14:03:06.629Z,98730.27
2018-04-30T14:05:34.489Z,98731.88
2018-04-30T14:08:02.199Z,98723.39
2018-04-30T14:10:29.808Z,98717.33
2018-04-30T14:12:57.507Z,98721.91
2018-04-30T14:15:25.065Z,98723.24
2018-04-30T14:17:52.677Z,98723.15
2018-04-30T14:20:20.272Z,98712.13
2018-04-30T14:22:47.821Z,98714.31
2018-04-30T14:25:15.429Z,98711.38
2018-04-30T14:27:43.128Z,98712.94
2018-04-30T14:30:10.680Z,98721.79
2018-04-30T14:32:38.478Z,98718.22
2018-04-30T14:35:06.043Z,98711.72
2018-04-30T14:37:33.816Z,98711.86
2018-04-30T14:40:01.379Z,98704.91
2018-04-30T14:42:29.151Z,98707.19
2018-04-30T14:44:56.971Z,98708.78
2018-04-30T14:47:24.532Z,98706.02
2018-04-30T14:49:52.224Z,98704.55
2018-04-30T14:52:19.860Z,98702.94
2018-04-30T14:54:47.642Z,98701.80
2018-04-30T14:57:15.340Z,98703.64
2018-04-30T14:59:42.920Z,98700.84
2018-04-30T15:02:10.471Z,98697.16
2018-04-30T15:04:38.192Z,98698.36
2018-04-30T15:07:05.932Z,98700.85
2018-04-30T15:09:33.484Z,98697.17
2018-04-30T15:12:01.062Z,98697.53
2018-04-30T15:14:28.671Z,98697.98
2018-04-30T15:16:56.295Z,98693.59
2018-04-30T15:19:23.890Z,98696.44
2018-04-30T15:21:51.641Z,98698.45
2018-04-30T15:24:19.208Z,98697.88
2018-04-30T15:26:46.869Z,98693.53
2018-04-30T15:29:14.595Z,98696.03
2018-04-30T15:31:42.205Z,98700.44
2018-04-30T15:34:09.895Z,98698.36
2018-04-30T15:36:37.613Z,98693.87
2018-04-30T15:39:05.241Z,98694.61
2018-04-30T15:41:32.987Z,98699.41
2018-04-30T15:44:00.614Z,98703.00
2018-04-30T15:46:28.179Z,98691.73
2018-04-30T15:48:56.040Z,98695.36
2018-04-30T15:51:23.612Z,98690.08
2018-04-30T15:53:51.204Z,98686.78
2018-04-30T15:56:18.833Z,98691.15
2018-04-30T15:58:46.388Z,98693.62
2018-04-30T16:01:14.077Z,98691.06
2018-04-30T16:03:41.620Z,98695.92
2018-04-30T16:06:09.186Z,98690.78
2018-04-30T16:08:36.789Z,98696.84
2018-04-30T16:11:04.361Z,98697.28
2018-04-30T16:13:31.930Z,98703.56
2018-04-30T16:15:59.492Z,98700.88
2018-04-30T16:18:27.029Z,98697.52
2018-04-30T16:20:54.650Z,98711.89
2018-04-30T16:23:22.213Z,98705.91
2018-04-30T16:25:49.809Z,98702.58
2018-04-30T16:28:17.626Z,98707.66
2018-04-30T16:30:45.446Z,98703.03
2018-04-30T16:33:13.059Z,98700.09
2018-04-30T16:35:40.617Z,98697.38
2018-04-30T16:38:08.216Z,98703.67
2018-04-30T16:40:35.813Z,98709.27
2018-04-30T16:43:03.411Z,98707.53
2018-04-30T16:45:31.041Z,98714.16
2018-04-30T16:47:58.773Z,98711.27
2018-04-30T16:50:26.351Z,98716.82
2018-04-30T16:52:53.957Z,98720.29
2018-04-30T16:55:21.683Z,98718.44
2018-04-30T16:57:49.544Z,98719.80
2018-04-30T17:00:17.173Z,98726.80
2018-04-30T17:02:44.771Z,98728.74
2018-04-30T17:05:12.333Z,98731.29
2018-04-30T17:07:39.920Z,98733.00
2018-04-30T17:10:07.582Z,98731.74
2018-04-30T17:12:35.176Z,98734.97
2018-04-30T17:15:02.736Z,98738.33
2018-04-30T17:17:30.333Z,98737.47
2018-04-30T17:19:57.919Z,98736.61
2018-04-30T17:22:25.540Z,98739.84
2018-04-30T17:24:53.124Z,98743.65
2018-04-30T17:27:20.966Z,98745.66
2018-04-30T17:29:48.781Z,98744.61
2018-04-30T17:32:16.389Z,98740.69
2018-04-30T17:34:44.244Z,98750.03
2018-04-30T17:37:11.803Z,98751.34
2018-04-30T17:39:39.372Z,98746.98
2018-04-30T17:42:06.956Z,98747.52
2018-04-30T17:44:34.544Z,98758.23
2018-04-30T17:47:02.201Z,98756.33
2018-04-30T17:49:29.759Z,98758.79
2018-04-30T17:51:57.541Z,98757.92
2018-04-30T17:54:25.242Z,98759.47
2018-04-30T17:56:52.824Z,98757.08
2018-04-30T17:59:20.596Z,98763.94
2018-04-30T18:01:48.416Z,98759.77
2018-04-30T18:04:16.173Z,98768.63
2018-04-30T18:06:44.124Z,98764.22
2018-04-30T18:09:11.734Z,98773.09
2018-04-30T18:11:39.285Z,98776.80
2018-04-30T18:14:06.884Z,98779.84
2018-04-30T18:16:34.444Z,98790.08
2018-04-30T18:19:02.136Z,98781.37
2018-04-30T18:21:29.750Z,98781.37
2018-04-30T18:23:57.331Z,98787.45
2018-04-30T18:26:25.094Z,98785.84
2018-04-30T18:28:52.912Z,98781.25
2018-04-30T18:31:20.476Z,98788.48
2018-04-30T18:33:48.104Z,98790.09
2018-04-30T18:36:15.672Z,98786.63
2018-04-30T18:38:43.321Z,98794.97
2018-04-30T18:41:11.108Z,98795.38
2018-04-30T18:43:38.922Z,98789.59
2018-04-30T18:46:06.524Z,98799.46
2018-04-30T18:48:34.080Z,98802.51
2018-04-30T18:51:01.632Z,98798.92
2018-04-30T18:53:29.394Z,98800.06
2018-04-30T18:55:57.211Z,98799.45
2018-04-30T18:58:24.832Z,98806.95
2018-04-30T19:00:52.430Z,98803.31
2018-04-30T19:03:20.151Z,98800.75
2018-04-30T19:05:47.737Z,98806.02
2018-04-30T19:08:15.352Z,98804.70
2018-04-30T19:10:43.215Z,98789.03
2018-04-30T19:13:10.932Z,98805.64
2018-04-30T19:15:38.547Z,98810.78
2018-04-30T19:18:06.130Z,98813.20
2018-04-30T19:20:33.707Z,98818.27
2018-04-30T19:23:01.504Z,98810.70
2018-04-30T19:25:29.109Z,98807.52
2018-04-30T19:27:56.702Z,98817.70
2018-04-30T19:30:24.426Z,98812.27
2018-04-30T19:32:52.167Z,98814.30
2018-04-30T19:35:19.853Z,98819.45
2018-04-30T19:37:47.600Z,98824.72
2018-04-30T19:40:15.213Z,98827.27
2018-04-30T19:42:42.826Z,98819.73
2018-04-30T19:45:10.416Z,98822.94
2018-04-30T19:47:38.070Z,98815.67
2018-04-30T19:50:05.648Z,98820.22
2018-04-30T19:52:33.435Z,98822.83
2018-04-30T19:55:01.040Z,98823.44
2018-04-30T19:57:29.114Z,98825.30
2018-04-30T19:59:56.698Z,98822.06
2018-04-30T20:02:24.332Z,98824.19
2018-04-30T20:04:51.900Z,98820.12
2018-04-30T20:07:19.461Z,98818.05
2018-04-30T20:09:47.114Z,98811.21
2018-04-30T20:12:14.704Z,98826.02
2018-04-30T20:14:42.594Z,98826.98
2018-04-30T20:17:10.154Z,98823.25
2018-04-30T20:19:37.897Z,98822.56
2018-04-30T20:22:05.629Z,98824.61
2018-04-30T20:24:33.197Z,98824.99
2018-04-30T20:27:00.869Z,98827.48
2018-04-30T20:29:28.534Z,98837.28
2018-04-30T20:31:56.101Z,98839.47
2018-04-30T20:34:23.680Z,98837.21
2018-04-30T20:36:51.312Z,98833.23
2018-04-30T20:39:18.910Z,98834.84
2018-04-30T20:41:46.474Z,98834.84
2018-04-30T20:44:14.313Z,98843.34
2018-04-30T20:46:41.912Z,98842.86
2018-04-30T20:49:09.653Z,98845.54
2018-04-30T20:51:37.393Z,98845.80
2018-04-30T20:54:05.151Z,98853.26
2018-04-30T20:56:32.908Z,98848.59
2018-04-30T20:59:00.437Z,98846.67
2018-04-30T21:01:28.248Z,98847.53
2018-04-30T21:03:56.059Z,98848.14
2018-04-30T21:06:23.835Z,98849.08
2018-04-30T21:09:03.209Z,98847.80
2018-04-30T21:11:30.963Z,98851.81
2018-04-30T21:13:58.525Z,98855.50
2018-04-30T21:16:26.125Z,98846.78
2018-04-30T21:18:53.832Z,98850.30
2018-04-30T21:21:21.645Z,98856.95
2018-04-30T21:23:49.215Z,98855.80
2018-04-30T21:26:16.809Z,98860.30
2018-04-30T21:28:44.421Z,98861.42
2018-04-30T21:31:12.102Z,98859.53
2018-04-30T21:33:39.724Z,98863.42
2018-04-30T21:36:07.327Z,98865.41
2018-04-30T21:38:35.055Z,98865.22
2018-04-30T21:41:02.681Z,98866.56
2018-04-30T21:43:30.273Z,98864.09
2018-04-30T21:45:57.891Z,98861.94
2018-04-30T21:48:25.830Z,98869.59
2018-04-30T21:50:53.481Z,98868.40
2018-04-30T21:53:21.065Z,98865.83
2018-04-30T21:55:48.779Z,98872.03
2018-04-30T21:58:16.599Z,98877.96
2018-04-30T22:00:44.185Z,98865.91
2018-04-30T22:03:11.969Z,98876.83
2018-04-30T22:05:39.551Z,98869.54
2018-04-30T22:08:07.452Z,98868.79
2018-04-30T22:10:35.085Z,98871.95
2018-04-30T22:13:02.695Z,98871.67
2018-04-30T22:15:30.527Z,98866.47
2018-04-30T22:17:58.107Z,98867.73
2018-04-30T22:20:25.681Z,98855.00
2018-04-30T22:22:53.300Z,98869.83
2018-04-30T22:25:21.098Z,98873.72
2018-04-30T22:27:48.669Z,98867.79
2018-04-30T22:30:16.319Z,98867.62
2018-04-30T22:32:44.010Z,98863.74
2018-04-30T22:35:11.961Z,98859.08
2018-04-30T22:37:40.092Z,98862.18
2018-04-30T22:40:07.811Z,98856.09
2018-04-30T22:42:35.393Z,98855.61
2018-04-30T22:45:02.957Z,98854.54
2018-04-30T22:47:30.592Z,98843.88
2018-04-30T22:49:58.148Z,98846.50
2018-04-30T22:52:25.878Z,98843.56
2018-04-30T22:54:53.448Z,98847.63
2018-04-30T22:57:21.237Z,98846.80
2018-04-30T22:59:48.857Z,98838.20
2018-04-30T23:02:16.429Z,98838.56
2018-04-30T23:04:44.110Z,98846.96
2018-04-30T23:07:12.096Z,98838.06
2018-04-30T23:09:39.867Z,98844.36
2018-04-30T23:12:07.612Z,98836.91
2018-04-30T23:14:35.363Z,98835.05
2018-04-30T23:17:03.184Z,98828.66
2018-04-30T23:19:30.883Z,98837.42
2018-04-30T23:21:58.619Z,98830.62
2018-04-30T23:24:26.192Z,98831.88
2018-04-30T23:26:53.983Z,98828.42
2018-04-30T23:29:21.616Z,98833.19
2018-04-30T23:31:49.207Z,98830.67
2018-04-30T23:34:17.017Z,98829.22
2018-04-30T23:36:44.830Z,98826.87
2018-04-30T23:39:12.391Z,98830.88
2018-04-30T23:41:40.017Z,98823.33
2018-04-30T23:44:07.594Z,98824.56
2018-04-30T23:46:35.420Z,98828.88
2018-04-30T23:49:02.992Z,98825.80
2018-04-30T23:51:30.548Z,98826.01
2018-04-30T23:53:58.176Z,98826.41
2018-04-30T23:56:25.972Z,98824.48
2018-04-30T23:58:53.538Z,98824.09
